Time;durP1;ratioP1;P1;durP2;ratioP2;P2;SDS_P1;SDS_P2;PMS_P1;PMS_P2;Temp;Humidity;BMP_temperature;BMP_pressure;BME280_temperature;BME280_humidity;BME280_pressure;Samples;Min_cycle;Max_cycle;Signal;HPM_P1;HPM_P2
2023/09/19 00:00:33;;;;;;;0.50;0.50;;;16.20;99.90;;;;;;5054513;28;20461;-83
2023/09/19 00:03:00;;;;;;;0.40;0.30;;;16.20;99.90;;;;;;5054302;28;20490;-82
2023/09/19 00:05:29;;;;;;;1.07;0.50;;;16.20;99.90;;;;;;5054423;28;20450;-83
2023/09/19 00:07:58;;;;;;;0.47;0.30;;;16.10;99.90;;;;;;5054412;28;20455;-83
2023/09/19 00:10:26;;;;;;;0.43;0.40;;;16.10;99.90;;;;;;5053772;28;20450;-83
2023/09/19 00:12:55;;;;;;;0.40;0.37;;;16.10;99.90;;;;;;5054177;28;20470;-83
2023/09/19 00:15:21;;;;;;;1.13;0.40;;;16.20;99.90;;;;;;5054294;28;20446;-83
2023/09/19 00:17:48;;;;;;;1.23;0.50;;;16.20;99.90;;;;;;5054196;28;20442;-83
2023/09/19 00:20:17;;;;;;;0.60;0.60;;;16.20;99.90;;;;;;5054176;28;20458;-83
2023/09/19 00:22:45;;;;;;;0.70;0.30;;;16.20;99.90;;;;;;5053870;28;20892;-83
2023/09/19 00:25:15;;;;;;;0.50;0.50;;;16.10;99.90;;;;;;5054060;28;20503;-83
2023/09/19 00:27:42;;;;;;;0.60;0.40;;;16.20;99.90;;;;;;5054015;28;20456;-84
2023/09/19 00:30:14;;;;;;;0.40;0.30;;;16.20;99.90;;;;;;5054010;28;20422;-83
2023/09/19 00:32:41;;;;;;;0.40;0.40;;;16.20;99.90;;;;;;5053884;28;20454;-83
2023/09/19 00:35:09;;;;;;;0.40;0.30;;;16.30;99.90;;;;;;5053903;28;20470;-83
2023/09/19 00:37:36;;;;;;;0.30;0.30;;;16.20;99.90;;;;;;5053825;28;20846;-83
2023/09/19 00:40:05;;;;;;;1.23;0.40;;;16.20;99.90;;;;;;5053768;28;20446;-83
2023/09/19 00:42:33;;;;;;;0.40;0.40;;;16.30;99.90;;;;;;5053282;28;20522;-83
2023/09/19 00:45:03;;;;;;;0.70;0.30;;;16.30;99.90;;;;;;5053716;28;20540;-83
2023/09/19 00:47:30;;;;;;;0.50;0.40;;;16.20;99.90;;;;;;5053709;28;20450;-83
2023/09/19 00:49:57;;;;;;;0.40;0.30;;;16.20;99.90;;;;;;5053638;28;20437;-83
2023/09/19 00:52:24;;;;;;;0.40;0.37;;;16.20;99.90;;;;;;5053214;28;20469;-83
2023/09/19 00:54:52;;;;;;;0.83;0.37;;;16.20;99.90;;;;;;5053212;28;20934;-83
2023/09/19 00:57:22;;;;;;;0.97;0.40;;;16.20;99.90;;;;;;5053487;28;20489;-83
2023/09/19 00:59:52;;;;;;;0.60;0.40;;;16.20;99.90;;;;;;5053177;28;20947;-83
2023/09/19 01:02:19;;;;;;;0.40;0.40;;;16.20;99.90;;;;;;5053328;28;20493;-83
2023/09/19 01:04:46;;;;;;;0.63;0.40;;;16.20;99.90;;;;;;5053434;28;20445;-83
2023/09/19 01:07:14;;;;;;;0.40;0.30;;;16.20;99.90;;;;;;5053111;28;20442;-83
2023/09/19 01:09:41;;;;;;;0.40;0.40;;;16.10;99.90;;;;;;5053340;28;20503;-83
2023/09/19 01:12:10;;;;;;;0.40;0.33;;;16.20;99.90;;;;;;5053295;28;20466;-83
2023/09/19 01:14:48;;;;;;;0.50;0.40;;;16.20;99.90;;;;;;5053280;28;20441;-83
2023/09/19 01:17:22;;;;;;;0.37;0.30;;;16.20;99.90;;;;;;5053376;28;20434;-83
2023/09/19 01:20:17;;;;;;;0.40;0.40;;;16.20;99.90;;;;;;5053382;28;20461;-83
2023/09/19 01:22:56;;;;;;;1.13;0.70;;;16.20;99.90;;;;;;5050568;28;20496;-83
2023/09/19 01:25:57;;;;;;;0.40;0.30;;;16.20;99.90;;;;;;5052940;28;20921;-83
2023/09/19 01:28:36;;;;;;;0.43;0.30;;;16.10;99.90;;;;;;5053189;28;20433;-83
2023/09/19 01:31:09;;;;;;;0.40;0.30;;;16.10;99.90;;;;;;5053843;28;20428;-83
2023/09/19 01:33:59;;;;;;;0.30;0.30;;;16.10;99.90;;;;;;5052879;28;20439;-83
2023/09/19 01:36:26;;;;;;;0.57;0.40;;;16.10;99.90;;;;;;5053141;28;20473;-83
2023/09/19 01:38:54;;;;;;;0.87;0.30;;;16.20;99.90;;;;;;5052779;28;20949;-83
2023/09/19 01:41:27;;;;;;;1.43;0.40;;;16.10;99.90;;;;;;5053405;28;20836;-83
2023/09/19 01:43:54;;;;;;;0.40;0.40;;;16.10;99.90;;;;;;5052639;28;20477;-83
2023/09/19 01:46:26;;;;;;;0.60;0.40;;;16.10;99.90;;;;;;5052692;28;20800;-83
2023/09/19 01:49:12;;;;;;;0.40;0.30;;;16.20;99.90;;;;;;5053127;28;20456;-83
2023/09/19 01:51:50;;;;;;;0.40;0.40;;;16.10;99.90;;;;;;5053000;28;20465;-83
2023/09/19 01:54:25;;;;;;;0.83;0.30;;;16.10;99.90;;;;;;5053131;28;20429;-84
2023/09/19 01:57:01;;;;;;;0.93;0.40;;;16.20;99.90;;;;;;5052803;28;20824;-83
2023/09/19 01:59:36;;;;;;;0.40;0.30;;;16.20;99.90;;;;;;5053091;28;20499;-83
2023/09/19 02:02:05;;;;;;;0.50;0.30;;;16.20;99.90;;;;;;5052526;28;20461;-83
2023/09/19 02:04:34;;;;;;;0.50;0.30;;;16.10;99.90;;;;;;5052811;28;20485;-83
2023/09/19 02:07:01;;;;;;;0.40;0.30;;;16.20;99.90;;;;;;5052783;28;20445;-83
2023/09/19 02:09:27;;;;;;;0.40;0.40;;;16.00;99.90;;;;;;5053272;28;20445;-83
2023/09/19 02:11:55;;;;;;;0.40;0.37;;;15.90;99.90;;;;;;5052401;28;20465;-83
2023/09/19 02:14:22;;;;;;;0.53;0.40;;;16.10;99.90;;;;;;5052734;28;20442;-84
2023/09/19 02:16:49;;;;;;;1.70;0.70;;;16.10;99.90;;;;;;5052449;28;20446;-84
2023/09/19 02:19:17;;;;;;;0.40;0.40;;;16.10;99.90;;;;;;5052679;28;20478;-84
2023/09/19 02:21:44;;;;;;;1.90;0.70;;;16.00;99.90;;;;;;5052594;28;20470;-83
2023/09/19 02:24:12;;;;;;;0.53;0.37;;;16.00;99.90;;;;;;5052343;28;21001;-83
2023/09/19 02:26:39;;;;;;;0.40;0.40;;;15.90;99.90;;;;;;5052710;28;20481;-83
2023/09/19 02:29:05;;;;;;;0.43;0.43;;;15.90;99.90;;;;;;5052277;28;20815;-84
2023/09/19 02:31:32;;;;;;;0.97;0.70;;;15.90;99.90;;;;;;5052178;28;20470;-83
2023/09/19 02:33:59;;;;;;;3.30;0.60;;;15.90;99.90;;;;;;5053440;28;20445;-83
2023/09/19 02:36:30;;;;;;;0.70;0.40;;;15.90;99.90;;;;;;5056138;28;20450;-83
2023/09/19 02:38:56;;;;;;;0.40;0.40;;;15.80;99.90;;;;;;5056216;28;20521;-83
2023/09/19 02:41:23;;;;;;;0.40;0.33;;;15.80;99.90;;;;;;5055759;28;20501;-82
2023/09/19 02:43:50;;;;;;;0.73;0.40;;;15.80;99.90;;;;;;5055747;28;20472;-83
2023/09/19 02:46:17;;;;;;;0.80;0.50;;;15.80;99.90;;;;;;5055964;28;20438;-83
2023/09/19 02:48:44;;;;;;;0.93;0.50;;;15.80;99.90;;;;;;5056167;28;20434;-83
2023/09/19 02:51:11;;;;;;;0.83;0.40;;;15.80;99.90;;;;;;5055821;28;20466;-83
2023/09/19 02:53:39;;;;;;;0.63;0.47;;;15.80;99.90;;;;;;5055612;28;20896;-84
2023/09/19 02:56:07;;;;;;;0.33;0.30;;;15.80;99.90;;;;;;5055878;28;20454;-83
2023/09/19 02:58:35;;;;;;;1.20;0.37;;;15.80;99.90;;;;;;5055699;28;20449;-83
2023/09/19 03:01:09;;;;;;;1.13;0.50;;;15.90;99.90;;;;;;5055649;28;20536;-83
2023/09/19 03:03:37;;;;;;;1.33;0.50;;;15.90;99.90;;;;;;5055560;28;20465;-83
2023/09/19 03:06:04;;;;;;;0.70;0.70;;;16.00;99.90;;;;;;5055847;28;20449;-83
2023/09/19 03:08:31;;;;;;;0.40;0.33;;;16.00;99.90;;;;;;5055564;28;20441;-83
2023/09/19 03:11:00;;;;;;;0.60;0.50;;;16.00;99.90;;;;;;5055229;28;20895;-84
2023/09/19 03:13:27;;;;;;;0.40;0.40;;;16.00;99.90;;;;;;5055442;28;20446;-84
2023/09/19 03:15:58;;;;;;;0.50;0.50;;;16.00;99.90;;;;;;5055426;28;20860;-83
2023/09/19 03:18:26;;;;;;;0.40;0.37;;;16.00;99.90;;;;;;5055393;28;20836;-83
2023/09/19 03:20:56;;;;;;;2.40;0.47;;;16.10;99.90;;;;;;5055269;28;20450;-84
2023/09/19 03:23:23;;;;;;;1.60;0.40;;;16.00;99.90;;;;;;5055506;28;20473;-83
2023/09/19 03:25:51;;;;;;;0.50;0.50;;;16.10;99.90;;;;;;5055548;28;20442;-83
2023/09/19 03:28:20;;;;;;;0.40;0.40;;;16.10;99.90;;;;;;5055144;28;20478;-83
2023/09/19 03:30:47;;;;;;;0.77;0.50;;;16.10;99.90;;;;;;5055092;28;20446;-83
2023/09/19 03:33:14;;;;;;;1.50;0.40;;;16.20;99.90;;;;;;5055835;28;20446;-83
2023/09/19 03:35:41;;;;;;;0.50;0.40;;;16.20;99.90;;;;;;5055295;28;20442;-83
2023/09/19 03:38:08;;;;;;;0.87;0.53;;;16.30;99.90;;;;;;5054661;28;20452;-83
2023/09/19 03:40:37;;;;;;;1.53;0.60;;;16.20;99.90;;;;;;5054933;28;20450;-83
2023/09/19 03:43:04;;;;;;;0.40;0.40;;;16.20;99.90;;;;;;5054369;28;20494;-83
2023/09/19 03:45:32;;;;;;;1.33;0.60;;;16.10;99.90;;;;;;5053980;28;20450;-83
2023/09/19 03:47:59;;;;;;;0.40;0.40;;;16.20;99.90;;;;;;5054872;28;20446;-83
2023/09/19 03:50:25;;;;;;;0.50;0.50;;;16.00;99.90;;;;;;5054706;28;20450;-83
2023/09/19 03:52:57;;;;;;;1.03;0.60;;;16.00;99.90;;;;;;5054921;28;20473;-83
2023/09/19 03:55:24;;;;;;;0.30;0.30;;;15.90;99.90;;;;;;5054702;28;20435;-83
2023/09/19 03:57:50;;;;;;;0.70;0.50;;;15.90;99.90;;;;;;5054827;28;20777;-83
2023/09/19 04:00:20;;;;;;;1.60;0.60;;;15.90;99.90;;;;;;5054557;28;20442;-83
2023/09/19 04:02:49;;;;;;;0.60;0.33;;;15.90;99.90;;;;;;5054074;28;20469;-83
2023/09/19 04:05:16;;;;;;;0.50;0.50;;;15.80;99.90;;;;;;5054551;28;20456;-83
2023/09/19 04:07:42;;;;;;;0.70;0.50;;;15.90;99.90;;;;;;5054404;28;20475;-83
2023/09/19 04:10:11;;;;;;;0.50;0.50;;;15.90;99.90;;;;;;5054333;28;20449;-83
2023/09/19 04:12:38;;;;;;;0.73;0.50;;;15.90;99.90;;;;;;5053946;28;21005;-83
2023/09/19 04:15:06;;;;;;;1.10;0.50;;;15.90;99.90;;;;;;5054333;28;20445;-83
2023/09/19 04:17:33;;;;;;;0.50;0.50;;;15.90;99.90;;;;;;5054200;28;20501;-83
2023/09/19 04:20:01;;;;;;;0.40;0.40;;;15.90;99.90;;;;;;5054169;28;20446;-83
2023/09/19 04:22:28;;;;;;;0.50;0.50;;;16.00;99.90;;;;;;5053802;28;20537;-83
2023/09/19 04:24:54;;;;;;;0.40;0.40;;;16.00;99.90;;;;;;5053662;28;21005;-83
2023/09/19 04:27:21;;;;;;;3.30;0.60;;;16.10;99.90;;;;;;5053997;28;20453;-83
2023/09/19 04:29:53;;;;;;;0.60;0.50;;;16.10;99.90;;;;;;5054260;28;20446;-83
2023/09/19 04:32:19;;;;;;;0.40;0.40;;;16.00;99.90;;;;;;5053894;28;20508;-83
2023/09/19 04:34:49;;;;;;;0.70;0.57;;;16.00;99.90;;;;;;5053588;28;20438;-83
2023/09/19 04:37:18;;;;;;;5.40;0.73;;;16.00;99.90;;;;;;5053804;28;20442;-83
2023/09/19 04:39:45;;;;;;;1.00;0.50;;;16.10;99.90;;;;;;5053810;28;20477;-83
2023/09/19 04:42:14;;;;;;;0.50;0.40;;;16.10;99.90;;;;;;5053592;28;20504;-83
2023/09/19 04:44:42;;;;;;;0.40;0.37;;;16.10;99.90;;;;;;5053662;28;20921;-83
2023/09/19 04:47:08;;;;;;;0.40;0.37;;;16.10;99.90;;;;;;5053728;28;20855;-83
2023/09/19 04:49:35;;;;;;;0.50;0.40;;;16.10;99.90;;;;;;5053615;28;20453;-83
2023/09/19 04:52:02;;;;;;;0.40;0.40;;;16.20;99.90;;;;;;5053603;28;20472;-83
2023/09/19 04:54:30;;;;;;;1.30;0.50;;;16.10;99.90;;;;;;5053584;28;20442;-83
2023/09/19 04:56:56;;;;;;;0.50;0.50;;;16.10;99.90;;;;;;5053167;28;20812;-82
2023/09/19 04:59:23;;;;;;;0.50;0.50;;;16.10;99.90;;;;;;5053467;28;20446;-83
2023/09/19 05:01:50;;;;;;;5.13;0.57;;;16.10;99.90;;;;;;5053422;28;20465;-82
2023/09/19 05:04:17;;;;;;;0.40;0.40;;;16.10;99.90;;;;;;5053380;28;20478;-84
2023/09/19 05:06:44;;;;;;;0.50;0.30;;;16.00;99.90;;;;;;5053562;28;20441;-84
2023/09/19 05:09:10;;;;;;;0.50;0.40;;;15.90;99.90;;;;;;5054301;28;20448;-84
2023/09/19 05:11:38;;;;;;;0.40;0.40;;;15.90;99.90;;;;;;5053482;28;20469;-84
2023/09/19 05:14:05;;;;;;;0.50;0.40;;;15.80;99.90;;;;;;5053348;28;20491;-84
2023/09/19 05:16:32;;;;;;;1.17;0.60;;;15.90;99.90;;;;;;5053474;28;20492;-85
2023/09/19 05:18:59;;;;;;;0.80;0.40;;;15.80;99.90;;;;;;5053116;28;20450;-85
2023/09/19 05:21:28;;;;;;;0.40;0.40;;;15.70;99.90;;;;;;5053427;28;20474;-85
2023/09/19 05:23:55;;;;;;;0.40;0.40;;;15.70;99.90;;;;;;5053235;28;20478;-84
2023/09/19 05:26:22;;;;;;;0.50;0.50;;;15.60;99.90;;;;;;5053214;28;20441;-84
2023/09/19 05:28:50;;;;;;;0.50;0.47;;;15.50;99.90;;;;;;5053255;28;20787;-84
2023/09/19 05:31:17;;;;;;;0.50;0.50;;;15.50;99.90;;;;;;5053177;28;20469;-84
2023/09/19 05:33:43;;;;;;;0.70;0.40;;;15.50;99.90;;;;;;5053155;28;20438;-84
2023/09/19 05:36:11;;;;;;;0.50;0.40;;;15.50;99.90;;;;;;5053388;28;20438;-84
2023/09/19 05:38:40;;;;;;;0.40;0.40;;;15.40;99.90;;;;;;5053003;28;20521;-84
2023/09/19 05:41:08;;;;;;;0.87;0.70;;;15.50;99.90;;;;;;5053114;28;20516;-83
2023/09/19 05:43:34;;;;;;;0.63;0.50;;;15.50;99.90;;;;;;5052734;28;20986;-84
2023/09/19 05:46:02;;;;;;;1.03;0.40;;;15.50;99.90;;;;;;5053118;28;20441;-84
2023/09/19 05:48:29;;;;;;;0.53;0.40;;;15.50;99.90;;;;;;5053302;28;20537;-84
2023/09/19 05:50:56;;;;;;;0.77;0.50;;;15.60;99.90;;;;;;5052721;28;20450;-84
2023/09/19 05:53:23;;;;;;;0.60;0.50;;;15.60;99.90;;;;;;5052972;28;20446;-84
2023/09/19 05:55:50;;;;;;;2.00;0.40;;;15.50;99.90;;;;;;5052972;28;20446;-84
2023/09/19 05:58:17;;;;;;;0.60;0.30;;;15.60;99.90;;;;;;5052942;28;20500;-83
2023/09/19 06:00:47;;;;;;;0.70;0.70;;;15.60;99.90;;;;;;5052959;28;20441;-84
2023/09/19 06:03:15;;;;;;;0.50;0.50;;;15.70;99.90;;;;;;5053475;28;20499;-84
2023/09/19 06:05:42;;;;;;;0.43;0.40;;;15.50;99.90;;;;;;5052876;28;21028;-84
2023/09/19 06:08:09;;;;;;;1.47;0.60;;;15.60;99.90;;;;;;5053021;28;20454;-84
2023/09/19 06:10:36;;;;;;;0.70;0.50;;;15.50;99.90;;;;;;5056223;28;20445;-84
2023/09/19 06:13:04;;;;;;;2.77;0.50;;;15.40;99.90;;;;;;5056607;28;20492;-84
2023/09/19 06:15:33;;;;;;;1.17;1.07;;;15.40;99.90;;;;;;5056271;28;20537;-83
2023/09/19 06:18:02;;;;;;;1.13;0.50;;;15.40;99.90;;;;;;5056509;28;20949;-83
2023/09/19 06:20:30;;;;;;;0.40;0.30;;;15.40;99.90;;;;;;5056575;28;20448;-84
2023/09/19 06:22:59;;;;;;;1.50;0.50;;;15.30;99.90;;;;;;5056315;28;20846;-83
2023/09/19 06:25:26;;;;;;;0.40;0.40;;;15.30;99.90;;;;;;5055987;28;20487;-83
2023/09/19 06:27:54;;;;;;;0.30;0.30;;;15.30;99.90;;;;;;5056344;28;20477;-83
2023/09/19 06:30:22;;;;;;;1.07;0.40;;;15.20;99.90;;;;;;5056378;28;20906;-83
2023/09/19 06:32:49;;;;;;;2.73;0.53;;;15.30;99.90;;;;;;5056125;28;20974;-83
2023/09/19 06:35:17;;;;;;;0.40;0.30;;;15.30;99.90;;;;;;5056327;28;20433;-83
2023/09/19 06:37:45;;;;;;;0.33;0.30;;;15.40;99.90;;;;;;5056452;28;20441;-83
2023/09/19 06:40:13;;;;;;;0.43;0.40;;;15.50;99.90;;;;;;5056324;28;20433;-83
2023/09/19 06:42:41;;;;;;;0.30;0.30;;;15.60;99.90;;;;;;5055619;28;20485;-83
2023/09/19 06:45:11;;;;;;;1.90;0.50;;;15.60;99.90;;;;;;5056105;28;20492;-83
2023/09/19 06:47:38;;;;;;;0.60;0.40;;;15.70;99.90;;;;;;5055662;28;21000;-83
2023/09/19 06:50:05;;;;;;;0.40;0.30;;;15.80;99.90;;;;;;5056053;28;20449;-84
2023/09/19 06:52:33;;;;;;;0.40;0.40;;;15.80;99.90;;;;;;5056489;28;20487;-83
2023/09/19 06:55:03;;;;;;;0.40;0.37;;;15.90;99.90;;;;;;5055957;28;20515;-83
2023/09/19 06:57:30;;;;;;;0.33;0.30;;;16.00;99.90;;;;;;5056240;28;20446;-83
2023/09/19 06:59:57;;;;;;;0.50;0.43;;;16.00;99.90;;;;;;5056435;28;20561;-83
2023/09/19 07:02:23;;;;;;;0.67;0.40;;;16.00;99.90;;;;;;5055457;28;20469;-84
2023/09/19 07:04:50;;;;;;;0.40;0.40;;;16.10;99.90;;;;;;5055694;28;20489;-83
2023/09/19 07:07:17;;;;;;;0.40;0.40;;;16.10;99.90;;;;;;5055436;28;20931;-83
2023/09/19 07:09:43;;;;;;;0.50;0.50;;;16.10;99.90;;;;;;5055331;28;20950;-82
2023/09/19 07:12:13;;;;;;;0.40;0.40;;;16.20;99.90;;;;;;5055486;28;20472;-83
2023/09/19 07:14:39;;;;;;;0.50;0.50;;;16.20;99.90;;;;;;5055466;28;20445;-83
2023/09/19 07:17:06;;;;;;;0.40;0.40;;;16.30;99.90;;;;;;5055453;28;20448;-83
2023/09/19 07:19:33;;;;;;;0.93;0.40;;;16.30;99.90;;;;;;5055154;28;20446;-83
2023/09/19 07:22:02;;;;;;;0.60;0.60;;;16.30;99.90;;;;;;5055379;28;20974;-83
2023/09/19 07:24:29;;;;;;;0.40;0.30;;;16.40;99.90;;;;;;5055396;28;20470;-83
2023/09/19 07:26:56;;;;;;;0.43;0.40;;;16.50;99.90;;;;;;5055278;28;20457;-83
2023/09/19 07:29:26;;;;;;;0.63;0.40;;;16.50;99.90;;;;;;5054841;28;20896;-83
2023/09/19 07:31:52;;;;;;;0.50;0.40;;;16.50;99.90;;;;;;5055097;28;20470;-83
2023/09/19 07:34:20;;;;;;;0.40;0.30;;;16.60;99.90;;;;;;5055171;28;20415;-83
2023/09/19 07:36:47;;;;;;;1.80;0.40;;;16.70;99.90;;;;;;5055102;28;20453;-83
2023/09/19 07:39:14;;;;;;;2.30;0.47;;;16.80;99.90;;;;;;5055001;28;20446;-83
2023/09/19 07:41:41;;;;;;;0.40;0.40;;;16.80;99.90;;;;;;5054773;28;20484;-82
2023/09/19 07:44:08;;;;;;;0.40;0.40;;;16.90;99.90;;;;;;5055177;28;20430;-83
2023/09/19 07:46:36;;;;;;;1.60;0.50;;;16.90;99.90;;;;;;5054532;28;20985;-83
2023/09/19 07:49:04;;;;;;;0.73;0.43;;;16.70;99.90;;;;;;5054825;28;20453;-83
2023/09/19 07:51:32;;;;;;;0.40;0.40;;;16.90;99.90;;;;;;5054743;28;20514;-83
2023/09/19 07:53:59;;;;;;;0.90;0.50;;;16.90;99.90;;;;;;5055618;28;20450;-82
2023/09/19 07:56:27;;;;;;;0.50;0.50;;;16.90;99.90;;;;;;5054392;28;20996;-83
2023/09/19 07:58:54;;;;;;;0.60;0.60;;;17.00;99.90;;;;;;5054314;28;20946;-83
2023/09/19 08:01:23;;;;;;;0.40;0.40;;;17.10;99.90;;;;;;5054213;28;20808;-83
2023/09/19 08:03:51;;;;;;;2.30;0.80;;;17.20;99.90;;;;;;5055375;28;20454;-82
2023/09/19 08:06:18;;;;;;;0.80;0.60;;;17.40;99.90;;;;;;5054466;28;20512;-83
2023/09/19 08:08:45;;;;;;;0.70;0.50;;;17.50;99.90;;;;;;5054401;28;20446;-83
2023/09/19 08:11:12;;;;;;;0.70;0.70;;;17.60;99.90;;;;;;5054423;28;20457;-83
2023/09/19 08:13:43;;;;;;;0.70;0.70;;;17.70;99.90;;;;;;5054048;28;20938;-83
2023/09/19 08:16:10;;;;;;;0.63;0.50;;;17.70;99.90;;;;;;5054405;28;20491;-83
2023/09/19 08:18:37;;;;;;;0.50;0.50;;;17.80;99.90;;;;;;5054520;28;20446;-83
2023/09/19 08:21:07;;;;;;;0.47;0.47;;;17.80;99.90;;;;;;5054130;28;20449;-83
2023/09/19 08:23:34;;;;;;;0.40;0.40;;;17.80;99.90;;;;;;5054198;28;20426;-83
2023/09/19 08:26:06;;;;;;;1.43;0.50;;;17.80;99.90;;;;;;5054053;28;20517;-83
2023/09/19 08:28:33;;;;;;;0.50;0.50;;;17.80;99.90;;;;;;5054108;28;20445;-83
2023/09/19 08:31:04;;;;;;;0.50;0.40;;;17.90;99.90;;;;;;5053888;28;20536;-83
2023/09/19 08:33:32;;;;;;;0.40;0.40;;;17.90;99.90;;;;;;5053607;28;20488;-83
2023/09/19 08:35:58;;;;;;;0.57;0.57;;;17.80;99.90;;;;;;5054194;28;20438;-83
2023/09/19 08:38:29;;;;;;;1.17;0.40;;;18.00;99.90;;;;;;5053652;28;20430;-83
2023/09/19 08:40:58;;;;;;;0.63;0.50;;;18.10;99.90;;;;;;5053825;28;20437;-83
2023/09/19 08:43:25;;;;;;;1.03;0.70;;;18.30;99.90;;;;;;5053419;28;20489;-83
2023/09/19 08:45:55;;;;;;;0.50;0.50;;;18.50;99.90;;;;;;5053744;28;21013;-84
2023/09/19 08:48:24;;;;;;;1.27;0.60;;;18.60;99.90;;;;;;5054297;28;20504;-84
2023/09/19 08:50:55;;;;;;;2.90;0.93;;;18.70;99.90;;;;;;5053647;28;20454;-83
2023/09/19 08:53:36;;;;;;;0.77;0.50;;;18.80;99.90;;;;;;5053843;28;20798;-84
2023/09/19 08:56:04;;;;;;;0.50;0.50;;;19.10;99.90;;;;;;5053713;28;20434;-84
2023/09/19 08:58:40;;;;;;;0.70;0.70;;;19.30;99.90;;;;;;5053639;28;20445;-83
2023/09/19 09:01:08;;;;;;;0.50;0.40;;;19.50;99.90;;;;;;5053544;28;20480;-83
2023/09/19 09:03:36;;;;;;;0.50;0.50;;;19.70;99.90;;;;;;5053477;28;20446;-85
2023/09/19 09:06:04;;;;;;;0.40;0.40;;;19.90;99.90;;;;;;5053155;28;20889;-84
2023/09/19 09:08:33;;;;;;;0.77;0.40;;;20.00;99.90;;;;;;5053594;28;20469;-84
2023/09/19 09:11:00;;;;;;;1.37;0.70;;;19.90;99.90;;;;;;5053105;28;20962;-84
2023/09/19 09:13:27;;;;;;;0.67;0.50;;;19.70;99.90;;;;;;5053109;28;20445;-85
2023/09/19 09:15:54;;;;;;;0.40;0.40;;;19.60;99.90;;;;;;5053390;28;20448;-84
2023/09/19 09:18:22;;;;;;;0.70;0.50;;;19.60;99.90;;;;;;5053343;28;20453;-84
2023/09/19 09:20:49;;;;;;;0.53;0.53;;;19.60;99.90;;;;;;5053232;28;20445;-84
2023/09/19 09:23:15;;;;;;;0.40;0.40;;;19.60;99.90;;;;;;5052906;28;20445;-84
2023/09/19 09:25:54;;;;;;;0.50;0.50;;;19.70;99.90;;;;;;5053137;28;20484;-84
2023/09/19 09:28:22;;;;;;;0.40;0.40;;;19.50;99.90;;;;;;5053265;28;20765;-84
2023/09/19 09:30:50;;;;;;;0.60;0.50;;;19.50;99.90;;;;;;5052845;28;20954;-84
2023/09/19 09:33:18;;;;;;;0.60;0.57;;;19.40;99.90;;;;;;5053242;28;20485;-84
2023/09/19 09:35:56;;;;;;;0.60;0.60;;;19.50;99.90;;;;;;5053226;28;20450;-85
2023/09/19 09:38:27;;;;;;;0.73;0.40;;;19.70;99.90;;;;;;5053426;28;20457;-85
2023/09/19 09:41:01;;;;;;;1.67;0.60;;;20.00;99.90;;;;;;5052882;28;20915;-85
2023/09/19 09:43:36;;;;;;;2.73;0.40;;;20.20;99.90;;;;;;5054352;28;20481;-85
2023/09/19 09:49:19;;;;;;;0.60;0.40;;;20.40;99.90;;;;;;5056981;28;20794;-84
2023/09/19 09:51:57;;;;;;;1.10;0.50;;;20.60;99.90;;;;;;5057131;28;20464;-84
2023/09/19 09:54:27;;;;;;;0.50;0.50;;;20.80;99.90;;;;;;5056733;28;20848;-84
2023/09/19 09:56:58;;;;;;;0.50;0.50;;;20.90;99.90;;;;;;5057081;28;20524;-83
2023/09/19 09:59:50;;;;;;;0.40;0.40;;;21.00;99.90;;;;;;5057022;28;20442;-83
2023/09/19 10:02:23;;;;;;;1.40;0.77;;;21.00;99.90;;;;;;5057769;28;20461;-86
2023/09/19 10:04:58;;;;;;;0.80;0.70;;;20.90;99.90;;;;;;5057902;28;20914;-86
2023/09/19 10:07:35;;;;;;;0.40;0.40;;;20.70;99.90;;;;;;5057386;28;20429;-87
2023/09/19 10:10:15;;;;;;;0.90;0.60;;;20.50;99.90;;;;;;5057496;28;20437;-86
2023/09/19 10:12:48;;;;;;;0.50;0.50;;;20.20;99.90;;;;;;5057091;28;21011;-86
2023/09/19 10:15:17;;;;;;;3.33;0.53;;;20.00;99.90;;;;;;5057766;28;20425;-86
2023/09/19 10:17:45;;;;;;;0.60;0.50;;;20.00;99.90;;;;;;5057536;28;21039;-86
2023/09/19 10:23:10;;;;;;;1.23;0.50;;;20.00;99.90;;;;;;5056918;28;21008;-86
2023/09/19 10:25:39;;;;;;;0.67;0.50;;;19.90;99.90;;;;;;5057544;28;20468;-87
2023/09/19 10:28:11;;;;;;;0.93;0.50;;;19.90;99.90;;;;;;5057196;28;20458;-86
2023/09/19 10:30:41;;;;;;;1.13;0.50;;;19.80;99.90;;;;;;5057455;28;20434;-87
2023/09/19 10:33:09;;;;;;;0.60;0.40;;;19.90;99.90;;;;;;5057087;28;20465;-86
2023/09/19 10:35:40;;;;;;;1.53;0.50;;;20.00;99.90;;;;;;5056666;28;20789;-87
2023/09/19 10:38:08;;;;;;;1.80;0.60;;;20.40;99.90;;;;;;5057233;28;20425;-87
2023/09/19 10:40:36;;;;;;;0.43;0.40;;;20.80;99.90;;;;;;5057101;28;20938;-87
2023/09/19 10:43:05;;;;;;;0.83;0.70;;;21.10;99.90;;;;;;5056228;28;20485;-86
2023/09/19 10:45:35;;;;;;;3.80;0.50;;;21.20;99.90;;;;;;5056989;28;20511;-87
2023/09/19 10:48:03;;;;;;;0.50;0.50;;;21.50;99.90;;;;;;5056981;28;20461;-87
2023/09/19 10:50:33;;;;;;;0.60;0.57;;;21.40;99.90;;;;;;5056882;28;20934;-83
2023/09/19 10:53:05;;;;;;;0.40;0.40;;;21.40;99.90;;;;;;5055644;28;20472;-87
2023/09/19 10:55:35;;;;;;;3.90;0.60;;;21.50;99.90;;;;;;5056125;28;20968;-87
2023/09/19 10:58:14;;;;;;;0.60;0.60;;;21.50;99.90;;;;;;5056947;28;20472;-87
2023/09/19 11:00:56;;;;;;;0.60;0.50;;;21.60;99.90;;;;;;5056826;28;20510;-86
2023/09/19 11:03:29;;;;;;;0.43;0.43;;;21.60;99.90;;;;;;5056338;28;20447;-86
2023/09/19 11:06:04;;;;;;;0.60;0.60;;;21.50;99.90;;;;;;5056340;28;20972;-87
2023/09/19 11:08:32;;;;;;;0.70;0.50;;;21.40;99.90;;;;;;5056088;28;20488;-86
2023/09/19 11:10:59;;;;;;;0.60;0.60;;;21.30;99.90;;;;;;5055867;28;20449;-86
2023/09/19 11:13:27;;;;;;;0.73;0.73;;;21.30;99.90;;;;;;5055990;28;20480;-86
2023/09/19 11:16:06;;;;;;;0.40;0.40;;;21.30;99.90;;;;;;5056289;28;20433;-86
2023/09/19 11:18:57;;;;;;;0.50;0.43;;;21.30;99.90;;;;;;5056525;28;20484;-87
2023/09/19 11:21:52;;;;;;;0.83;0.60;;;21.20;99.90;;;;;;5056342;28;20469;-87
2023/09/19 11:24:36;;;;;;;0.70;0.70;;;21.00;99.90;;;;;;5056199;28;20429;-87
2023/09/19 11:27:14;;;;;;;2.17;0.73;;;20.80;99.90;;;;;;5056798;28;20519;-87
2023/09/19 11:29:41;;;;;;;1.37;0.53;;;20.70;99.90;;;;;;5056414;28;20441;-87
2023/09/19 11:32:09;;;;;;;0.80;0.50;;;20.70;99.90;;;;;;5056064;28;20476;-88
2023/09/19 11:34:50;;;;;;;0.63;0.50;;;20.90;99.90;;;;;;5056355;28;20954;-87
2023/09/19 11:38:15;;;;;;;0.50;0.50;;;21.10;99.90;;;;;;5056854;28;20465;-87
2023/09/19 11:40:55;;;;;;;0.50;0.43;;;21.20;99.90;;;;;;5056640;28;20434;-87
2023/09/19 11:43:39;;;;;;;0.80;0.57;;;21.40;99.90;;;;;;5055905;28;20576;-87
2023/09/19 11:46:10;;;;;;;1.07;0.50;;;21.20;99.90;;;;;;5055916;28;20476;-87
2023/09/19 11:48:41;;;;;;;0.40;0.40;;;21.10;99.90;;;;;;5055800;28;20553;-87
2023/09/19 11:51:29;;;;;;;0.80;0.70;;;21.00;99.90;;;;;;5055768;28;20473;-86
2023/09/19 11:53:59;;;;;;;0.50;0.40;;;20.80;99.90;;;;;;5049229;28;20650;-87
2023/09/19 11:56:28;;;;;;;3.80;0.60;;;20.90;99.90;;;;;;5055431;28;20433;-87
2023/09/19 11:58:56;;;;;;;0.70;0.40;;;21.00;99.90;;;;;;5055508;28;20445;-87
2023/09/19 12:01:24;;;;;;;1.10;0.70;;;21.00;99.90;;;;;;5055120;28;20480;-87
2023/09/19 12:03:57;;;;;;;0.50;0.40;;;20.90;99.90;;;;;;5055607;28;20942;-87
2023/09/19 12:06:25;;;;;;;0.60;0.40;;;20.80;99.90;;;;;;5055512;28;20576;-86
2023/09/19 12:08:53;;;;;;;0.57;0.50;;;20.70;99.90;;;;;;5055151;28;20457;-86
2023/09/19 12:11:23;;;;;;;0.60;0.60;;;20.60;99.90;;;;;;5054924;28;20469;-86
2023/09/19 12:13:50;;;;;;;0.50;0.50;;;20.60;99.90;;;;;;5055026;28;20441;-87
2023/09/19 12:16:18;;;;;;;0.40;0.40;;;20.70;99.90;;;;;;5055191;28;20445;-86
2023/09/19 12:18:47;;;;;;;0.70;0.50;;;20.70;99.90;;;;;;5055420;28;20476;-86
2023/09/19 12:21:27;;;;;;;0.80;0.70;;;20.70;99.90;;;;;;5055023;28;20484;-87
2023/09/19 12:24:11;;;;;;;0.80;0.40;;;20.70;99.90;;;;;;5054962;28;20444;-87
2023/09/19 12:26:43;;;;;;;0.77;0.50;;;20.70;99.90;;;;;;5054730;28;20518;-87
2023/09/19 12:29:18;;;;;;;0.60;0.50;;;20.70;99.90;;;;;;5055377;28;20497;-87
2023/09/19 12:31:53;;;;;;;1.70;0.77;;;20.70;99.90;;;;;;5054862;28;20530;-86
2023/09/19 12:34:26;;;;;;;0.33;0.33;;;20.60;99.90;;;;;;5055099;28;20975;-86
2023/09/19 12:37:11;;;;;;;1.23;0.60;;;20.50;99.90;;;;;;5055755;28;20453;-86
2023/09/19 12:39:48;;;;;;;0.50;0.50;;;20.40;99.90;;;;;;5055537;28;20425;-87
2023/09/19 12:42:16;;;;;;;0.50;0.50;;;20.30;99.90;;;;;;5054576;28;20490;-87
2023/09/19 12:44:44;;;;;;;0.50;0.50;;;20.30;99.90;;;;;;5055425;28;20449;-87
2023/09/19 12:47:15;;;;;;;0.50;0.50;;;20.20;99.90;;;;;;5055699;28;20488;-86
2023/09/19 12:50:08;;;;;;;0.60;0.40;;;20.10;99.90;;;;;;5055517;28;20433;-87
2023/09/19 12:52:40;;;;;;;1.37;0.60;;;20.10;99.90;;;;;;5055241;28;20531;-85
2023/09/19 12:55:09;;;;;;;0.60;0.50;;;20.70;99.90;;;;;;5055060;28;20449;-86
2023/09/19 12:57:36;;;;;;;0.50;0.50;;;20.10;99.90;;;;;;5054957;28;20456;-86
2023/09/19 13:00:05;;;;;;;0.77;0.40;;;20.10;99.90;;;;;;5054640;28;20442;-86
2023/09/19 13:02:32;;;;;;;0.60;0.60;;;20.10;99.90;;;;;;5054572;28;20478;-87
2023/09/19 13:04:59;;;;;;;0.50;0.50;;;20.00;99.90;;;;;;5054784;28;20882;-87
2023/09/19 13:07:49;;;;;;;0.40;0.40;;;20.00;99.90;;;;;;5054513;28;20515;-86